createdAt,value
2017-10-26T00:01:45.326Z,6.93
2017-10-26T00:04:12.226Z,6.90
2017-10-26T00:06:39.530Z,7.70
2017-10-26T00:09:06.437Z,7.57
2017-10-26T00:11:33.318Z,7.47
2017-10-26T00:14:00.286Z,6.93
2017-10-26T00:16:27.245Z,7.27
2017-10-26T00:18:54.126Z,8.27
2017-10-26T00:21:21.138Z,6.40
2017-10-26T00:23:48.083Z,7.10
2017-10-26T00:26:14.970Z,8.00
2017-10-26T00:28:41.873Z,7.47
2017-10-26T00:31:08.790Z,6.33
2017-10-26T00:33:36.069Z,7.30
2017-10-26T00:36:02.950Z,7.00
2017-10-26T00:38:29.863Z,7.10
2017-10-26T00:40:56.773Z,7.57
2017-10-26T00:43:23.653Z,6.37
2017-10-26T00:45:50.529Z,7.90
2017-10-26T00:48:17.837Z,8.00
2017-10-26T00:50:44.751Z,6.60
2017-10-26T00:53:11.638Z,6.77
2017-10-26T00:55:38.553Z,6.70
2017-10-26T00:58:05.433Z,6.20
2017-10-26T01:00:32.349Z,6.90
2017-10-26T01:02:59.229Z,7.67
2017-10-26T01:05:26.133Z,5.90
2017-10-26T01:07:53.250Z,5.87
2017-10-26T01:10:20.681Z,5.43
2017-10-26T01:12:47.617Z,6.00
2017-10-26T01:15:14.499Z,6.23
2017-10-26T01:17:41.798Z,5.80
2017-10-26T01:20:08.785Z,5.53
2017-10-26T01:22:36.062Z,5.60
2017-10-26T01:25:02.969Z,6.60
2017-10-26T01:27:29.879Z,5.63
2017-10-26T01:29:56.783Z,6.17
2017-10-26T01:32:24.082Z,5.90
2017-10-26T01:34:50.965Z,6.60
2017-10-26T01:37:17.874Z,5.77
2017-10-26T01:39:44.758Z,6.10
2017-10-26T01:42:11.663Z,6.00
2017-10-26T01:44:38.715Z,6.00
2017-10-26T01:47:05.622Z,6.47
2017-10-26T01:49:32.907Z,6.37
2017-10-26T01:51:59.817Z,6.07
2017-10-26T01:54:27.111Z,7.80
2017-10-26T01:56:53.993Z,7.97
2017-10-26T01:59:20.949Z,9.67
2017-10-26T02:01:47.855Z,6.30
2017-10-26T02:04:14.746Z,6.77
2017-10-26T02:06:42.410Z,7.23
2017-10-26T02:09:09.691Z,7.00
2017-10-26T02:11:36.574Z,7.90
2017-10-26T02:14:03.490Z,7.33
2017-10-26T02:16:30.378Z,8.97
2017-10-26T02:18:57.262Z,8.90
2017-10-26T02:21:24.598Z,9.57
2017-10-26T02:23:51.891Z,8.43
2017-10-26T02:26:19.255Z,8.57
2017-10-26T02:28:58.065Z,7.27
2017-10-26T02:31:36.902Z,7.90
2017-10-26T02:34:03.806Z,7.17
2017-10-26T02:36:31.110Z,7.43
2017-10-26T02:38:57.986Z,7.57
2017-10-26T02:41:24.898Z,7.10
2017-10-26T02:43:51.786Z,6.80
2017-10-26T02:46:18.697Z,6.50
2017-10-26T02:48:45.579Z,6.77
2017-10-26T02:51:12.526Z,7.60
2017-10-26T02:53:39.428Z,7.23
2017-10-26T02:56:06.327Z,6.20
2017-10-26T02:58:33.678Z,6.83
2017-10-26T03:01:00.565Z,6.03
2017-10-26T03:03:27.466Z,6.90
2017-10-26T03:05:54.369Z,7.27
2017-10-26T03:08:21.277Z,5.73
2017-10-26T03:10:48.554Z,6.27
2017-10-26T03:13:15.463Z,6.60
2017-10-26T03:15:42.351Z,7.20
2017-10-26T03:18:09.263Z,6.70
2017-10-26T03:20:36.586Z,7.10
2017-10-26T03:23:03.482Z,5.60
2017-10-26T03:25:30.376Z,5.50
2017-10-26T03:27:57.356Z,6.10
2017-10-26T03:30:24.694Z,6.07
2017-10-26T03:32:51.598Z,5.93
2017-10-26T03:35:18.582Z,6.60
2017-10-26T03:37:45.529Z,5.80
2017-10-26T03:40:12.414Z,6.67
2017-10-26T03:42:39.313Z,6.43
2017-10-26T03:45:06.271Z,6.23
2017-10-26T03:47:33.214Z,6.17
2017-10-26T03:50:00.106Z,5.57
2017-10-26T03:52:27.014Z,6.40
2017-10-26T03:54:53.894Z,5.70
2017-10-26T03:57:20.815Z,5.87
2017-10-26T03:59:48.153Z,6.40
2017-10-26T04:02:15.030Z,6.23
2017-10-26T04:04:41.945Z,6.60
2017-10-26T04:07:08.827Z,6.47
2017-10-26T04:09:35.835Z,6.70
2017-10-26T04:12:02.739Z,6.30
2017-10-26T04:14:29.728Z,6.60
2017-10-26T04:16:56.673Z,7.13
2017-10-26T04:19:23.554Z,6.07
2017-10-26T04:21:50.457Z,6.90
2017-10-26T04:24:17.338Z,6.57
2017-10-26T04:26:44.646Z,6.47
2017-10-26T04:29:11.538Z,7.63
2017-10-26T04:31:38.813Z,6.27
2017-10-26T04:34:05.886Z,6.63
2017-10-26T04:36:32.765Z,6.27
2017-10-26T04:38:59.682Z,7.27
2017-10-26T04:41:26.566Z,6.23
2017-10-26T04:43:53.916Z,6.60
2017-10-26T04:46:20.811Z,6.33
2017-10-26T04:48:47.698Z,6.57
2017-10-26T04:51:14.598Z,6.40
2017-10-26T04:53:41.521Z,7.10
2017-10-26T04:56:08.522Z,7.70
2017-10-26T04:58:35.402Z,7.00
2017-10-26T05:01:02.707Z,6.80
2017-10-26T05:03:29.581Z,7.07
2017-10-26T05:05:56.485Z,5.83
2017-10-26T05:08:23.461Z,6.70
2017-10-26T05:10:50.342Z,6.93
2017-10-26T05:13:17.650Z,6.83
2017-10-26T05:15:44.545Z,6.87
2017-10-26T05:18:11.822Z,6.43
2017-10-26T05:20:38.733Z,7.90
2017-10-26T05:23:06.051Z,7.23
2017-10-26T05:25:32.953Z,7.33
2017-10-26T05:27:59.861Z,7.80
2017-10-26T05:30:26.741Z,7.30
2017-10-26T05:32:53.641Z,7.10
2017-10-26T05:35:20.557Z,7.13
2017-10-26T05:37:47.442Z,7.60
2017-10-26T05:40:14.322Z,6.10
2017-10-26T05:42:41.226Z,6.77
2017-10-26T05:45:08.109Z,6.67
2017-10-26T05:47:35.009Z,6.97
2017-10-26T05:50:01.896Z,8.03
2017-10-26T05:52:29.197Z,7.10
2017-10-26T05:54:56.077Z,7.57
2017-10-26T05:57:23.381Z,7.57
2017-10-26T05:59:50.261Z,8.50
2017-10-26T06:02:17.142Z,8.07
2017-10-26T06:04:44.055Z,7.77
2017-10-26T06:07:10.937Z,8.77
2017-10-26T06:09:37.821Z,8.73
2017-10-26T06:12:04.725Z,7.40
2017-10-26T06:14:31.621Z,8.40
2017-10-26T06:16:58.577Z,7.67
2017-10-26T06:19:25.488Z,9.27
2017-10-26T06:21:52.378Z,11.23
2017-10-26T06:24:19.300Z,10.90
2017-10-26T06:26:46.272Z,11.00
2017-10-26T06:29:13.225Z,12.27
2017-10-26T06:31:40.530Z,10.57
2017-10-26T06:34:07.520Z,11.73
2017-10-26T06:36:34.454Z,10.97
2017-10-26T06:39:01.405Z,11.70
2017-10-26T06:41:28.297Z,11.97
2017-10-26T06:43:55.212Z,10.77
2017-10-26T06:46:22.150Z,9.63
2017-10-26T06:48:49.102Z,10.50
2017-10-26T06:51:16.148Z,10.27
2017-10-26T06:53:43.095Z,8.97
2017-10-26T06:56:10.010Z,10.40
2017-10-26T06:58:36.899Z,11.10
2017-10-26T07:01:04.238Z,10.30
2017-10-26T07:03:31.118Z,8.90
2017-10-26T07:05:58.030Z,9.67
2017-10-26T07:08:24.982Z,10.17
2017-10-26T07:10:51.923Z,9.43
2017-10-26T07:13:18.842Z,9.90
2017-10-26T07:15:45.729Z,10.60
2017-10-26T07:18:13.041Z,9.60
2017-10-26T07:20:40.165Z,11.00
2017-10-26T07:23:07.085Z,10.70
2017-10-26T07:25:34.013Z,10.77
2017-10-26T07:28:00.969Z,10.60
2017-10-26T07:30:28.281Z,10.77
2017-10-26T07:32:55.165Z,9.87
2017-10-26T07:35:22.487Z,8.43
2017-10-26T07:37:49.379Z,9.10
2017-10-26T07:40:16.668Z,9.70
2017-10-26T07:42:43.596Z,11.20
2017-10-26T07:45:10.482Z,10.33
2017-10-26T07:47:37.369Z,10.77
2017-10-26T07:50:04.688Z,11.37
2017-10-26T07:52:31.587Z,11.10
2017-10-26T07:54:58.493Z,12.00
2017-10-26T07:57:25.750Z,12.50
2017-10-26T07:59:52.667Z,10.90
2017-10-26T08:02:19.580Z,11.80
2017-10-26T08:04:46.507Z,11.37
2017-10-26T08:07:13.790Z,12.90
2017-10-26T08:09:40.684Z,12.43
2017-10-26T08:12:07.639Z,12.20
2017-10-26T08:14:34.825Z,13.00
2017-10-26T08:17:01.710Z,12.37
2017-10-26T08:19:28.595Z,12.03
2017-10-26T08:21:55.906Z,12.20
2017-10-26T08:24:22.811Z,14.07
2017-10-26T08:26:49.730Z,14.17
2017-10-26T08:29:17.042Z,14.10
2017-10-26T08:31:43.940Z,12.80
2017-10-26T08:34:11.245Z,13.57
2017-10-26T08:36:38.130Z,12.33
2017-10-26T08:39:05.449Z,15.10
2017-10-26T08:41:32.377Z,16.03
2017-10-26T08:43:59.317Z,12.90
2017-10-26T08:46:26.252Z,14.17
2017-10-26T08:48:53.138Z,14.50
2017-10-26T08:51:20.034Z,12.67
2017-10-26T08:53:46.955Z,12.57
2017-10-26T08:56:13.850Z,14.10
2017-10-26T08:58:40.766Z,13.03
2017-10-26T09:01:08.041Z,12.80
2017-10-26T09:03:34.968Z,12.63
2017-10-26T09:06:01.931Z,12.07
2017-10-26T09:08:28.851Z,11.43
2017-10-26T09:10:56.158Z,12.47
2017-10-26T09:13:23.042Z,11.30
2017-10-26T09:15:50.356Z,11.53
2017-10-26T09:18:17.254Z,11.90
2017-10-26T09:20:44.575Z,10.53
2017-10-26T09:23:11.457Z,11.47
2017-10-26T09:25:38.761Z,11.80
2017-10-26T09:28:05.670Z,11.90
2017-10-26T09:30:32.623Z,10.73
2017-10-26T09:32:59.543Z,11.60
2017-10-26T09:35:26.823Z,13.77
2017-10-26T09:37:53.751Z,11.77
2017-10-26T09:40:21.022Z,13.10
2017-10-26T09:42:47.911Z,14.10
2017-10-26T09:45:14.830Z,13.87
2017-10-26T09:47:41.712Z,13.53
2017-10-26T09:50:08.622Z,14.20
2017-10-26T09:52:35.514Z,13.80
2017-10-26T09:55:02.421Z,12.50
2017-10-26T09:57:29.329Z,14.30
2017-10-26T09:59:56.217Z,12.93
2017-10-26T10:02:23.141Z,12.43
2017-10-26T10:04:50.021Z,12.37
2017-10-26T10:07:16.910Z,10.33
2017-10-26T10:09:43.828Z,10.00
2017-10-26T10:12:10.774Z,10.30
2017-10-26T10:14:38.079Z,9.93
2017-10-26T10:17:04.994Z,10.47
2017-10-26T10:19:32.297Z,9.27
2017-10-26T10:21:59.177Z,9.67
2017-10-26T10:24:26.143Z,10.03
2017-10-26T10:26:53.043Z,9.83
2017-10-26T10:29:19.957Z,9.80
2017-10-26T10:31:46.858Z,10.00
2017-10-26T10:34:13.750Z,9.27
2017-10-26T10:36:40.672Z,8.73
2017-10-26T10:39:07.957Z,10.63
2017-10-26T10:41:34.888Z,10.10
2017-10-26T10:44:01.770Z,18.80
2017-10-26T10:46:28.667Z,8.30
2017-10-26T10:48:55.997Z,8.10
2017-10-26T10:51:22.873Z,8.07
2017-10-26T10:53:49.759Z,8.33
2017-10-26T10:56:16.657Z,7.87
2017-10-26T10:58:43.573Z,7.30
2017-10-26T11:01:10.564Z,7.83
2017-10-26T11:03:37.465Z,7.20
2017-10-26T11:06:04.346Z,8.10
2017-10-26T11:08:31.246Z,8.97
2017-10-26T11:10:58.131Z,7.70
2017-10-26T11:13:25.433Z,7.83
2017-10-26T11:15:52.345Z,6.67
2017-10-26T11:18:19.257Z,7.97
2017-10-26T11:20:46.529Z,7.97
2017-10-26T11:23:13.815Z,11.07
2017-10-26T11:25:40.769Z,10.40
2017-10-26T11:28:07.654Z,8.00
2017-10-26T11:30:34.944Z,7.63
2017-10-26T11:33:01.868Z,7.00
2017-10-26T11:35:28.758Z,6.67
2017-10-26T11:37:55.678Z,5.93
2017-10-26T11:40:22.569Z,6.27
2017-10-26T11:42:49.453Z,6.77
2017-10-26T11:45:16.752Z,7.47
2017-10-26T11:47:43.638Z,6.93
2017-10-26T11:50:10.957Z,6.37
2017-10-26T11:52:37.889Z,5.90
2017-10-26T11:55:04.795Z,6.47
2017-10-26T11:57:31.765Z,7.50
2017-10-26T11:59:58.641Z,7.00
2017-10-26T12:02:25.551Z,7.13
2017-10-26T12:04:52.428Z,6.07
2017-10-26T12:07:19.354Z,7.10
2017-10-26T12:09:46.231Z,6.00
2017-10-26T12:12:13.242Z,6.63
2017-10-26T12:14:40.134Z,7.80
2017-10-26T12:17:07.033Z,6.50
2017-10-26T12:19:33.949Z,6.33
2017-10-26T12:22:01.230Z,5.53
2017-10-26T12:24:28.109Z,6.50
2017-10-26T12:26:55.022Z,7.30
2017-10-26T12:29:21.902Z,6.53
2017-10-26T12:31:48.823Z,7.47
2017-10-26T12:34:15.708Z,6.60
2017-10-26T12:36:42.622Z,6.07
2017-10-26T12:39:09.501Z,6.87
2017-10-26T12:41:36.406Z,7.00
2017-10-26T12:44:03.310Z,6.90
2017-10-26T12:46:30.618Z,7.13
2017-10-26T12:48:57.541Z,7.30
2017-10-26T12:51:24.418Z,7.70
2017-10-26T12:53:51.338Z,7.23
2017-10-26T12:56:18.213Z,7.27
2017-10-26T12:58:45.128Z,6.67
2017-10-26T13:01:12.071Z,7.60
2017-10-26T13:03:38.947Z,8.53
2017-10-26T13:06:05.850Z,8.07
2017-10-26T13:08:32.738Z,7.80
2017-10-26T13:10:59.642Z,8.73
2017-10-26T13:13:26.522Z,7.97
2017-10-26T13:15:53.476Z,9.23
2017-10-26T13:18:20.381Z,7.20
2017-10-26T13:20:47.281Z,7.33
2017-10-26T13:23:14.176Z,7.43
2017-10-26T13:25:41.088Z,6.70
2017-10-26T13:28:08.000Z,7.03
2017-10-26T13:30:34.882Z,6.20
2017-10-26T13:33:01.801Z,6.00
2017-10-26T13:35:28.774Z,6.20
2017-10-26T13:37:55.658Z,6.80
2017-10-26T13:40:22.602Z,6.53
2017-10-26T13:42:49.527Z,6.40
2017-10-26T13:45:16.823Z,6.03
2017-10-26T13:47:43.732Z,5.90
2017-10-26T13:50:11.027Z,6.20
2017-10-26T13:52:37.909Z,6.13
2017-10-26T13:55:04.814Z,5.97
2017-10-26T13:57:31.739Z,5.00
2017-10-26T13:59:58.675Z,5.80
2017-10-26T14:02:25.562Z,5.57
2017-10-26T14:04:52.441Z,5.13
2017-10-26T14:07:19.354Z,5.17
2017-10-26T14:09:46.226Z,5.30
2017-10-26T14:12:13.216Z,4.80
2017-10-26T14:14:40.094Z,5.87
2017-10-26T14:17:06.991Z,5.90
2017-10-26T14:19:34.265Z,5.20
2017-10-26T14:22:01.161Z,5.30
2017-10-26T14:24:28.062Z,6.13
2017-10-26T14:26:54.945Z,4.70
2017-10-26T14:29:21.902Z,4.30
2017-10-26T14:31:48.849Z,6.00
2017-10-26T14:34:15.802Z,5.23
2017-10-26T14:36:42.679Z,5.33
2017-10-26T14:39:09.866Z,5.80
2017-10-26T14:41:36.753Z,4.40
2017-10-26T14:44:04.040Z,4.40
2017-10-26T14:46:30.949Z,5.70
2017-10-26T14:48:58.242Z,4.83
2017-10-26T14:51:25.161Z,5.13
2017-10-26T14:53:52.475Z,5.50
2017-10-26T14:56:19.389Z,5.53
2017-10-26T14:58:46.298Z,4.93
2017-10-26T15:01:13.643Z,5.17
2017-10-26T15:03:40.574Z,5.63
2017-10-26T15:06:07.453Z,5.70
2017-10-26T15:08:34.730Z,6.60
2017-10-26T15:11:01.638Z,6.90
2017-10-26T15:13:28.955Z,8.03
2017-10-26T15:15:55.851Z,5.83
2017-10-26T15:18:23.151Z,5.33
2017-10-26T15:20:50.034Z,5.87
2017-10-26T15:23:16.941Z,6.00
2017-10-26T15:25:43.822Z,6.80
2017-10-26T15:28:10.728Z,6.27
2017-10-26T15:30:37.638Z,6.37
2017-10-26T15:33:04.555Z,6.77
2017-10-26T15:35:31.439Z,5.80
2017-10-26T15:37:58.341Z,6.13
2017-10-26T15:40:25.263Z,6.30
2017-10-26T15:42:52.167Z,6.90
2017-10-26T15:45:19.065Z,6.80
2017-10-26T15:47:46.029Z,6.13
2017-10-26T15:50:12.906Z,6.83
2017-10-26T15:52:39.809Z,8.40
2017-10-26T15:55:07.248Z,7.70
2017-10-26T15:57:34.217Z,7.80
2017-10-26T16:00:01.166Z,7.60
2017-10-26T16:02:28.062Z,8.70
2017-10-26T16:04:55.060Z,9.43
2017-10-26T16:07:22.117Z,9.80
2017-10-26T16:09:49.034Z,9.80
2017-10-26T16:12:15.935Z,11.20
2017-10-26T16:14:42.959Z,9.80
2017-10-26T16:17:10.610Z,12.03
2017-10-26T16:19:37.567Z,10.73
2017-10-26T16:22:04.450Z,12.27
2017-10-26T16:24:31.454Z,11.93
2017-10-26T16:26:58.403Z,11.47
2017-10-26T16:29:25.345Z,12.10
2017-10-26T16:31:52.274Z,12.90
2017-10-26T16:34:19.170Z,13.10
2017-10-26T16:36:46.089Z,14.20
2017-10-26T16:39:13.134Z,13.77
2017-10-26T16:41:40.021Z,13.77
2017-10-26T16:44:06.908Z,13.67
2017-10-26T16:46:34.078Z,13.30
2017-10-26T16:49:01.064Z,14.90
2017-10-26T16:51:27.966Z,15.73
2017-10-26T16:53:54.876Z,13.90
2017-10-26T16:56:21.884Z,15.57
2017-10-26T16:58:49.242Z,16.23
2017-10-26T17:01:16.133Z,16.03
2017-10-26T17:03:43.022Z,16.57
2017-10-26T17:06:10.362Z,17.10
2017-10-26T17:08:37.317Z,15.63
2017-10-26T17:11:04.671Z,16.17
2017-10-26T17:13:31.560Z,15.17
2017-10-26T17:15:58.554Z,16.13
2017-10-26T17:18:25.444Z,16.37
2017-10-26T17:20:52.441Z,13.50
2017-10-26T17:23:19.339Z,13.50
2017-10-26T17:25:46.273Z,11.83
2017-10-26T17:28:13.159Z,11.60
2017-10-26T17:30:40.845Z,12.50
2017-10-26T17:33:07.753Z,11.27
2017-10-26T17:35:34.663Z,12.40
2017-10-26T17:38:01.570Z,12.40
2017-10-26T17:40:28.530Z,12.53
2017-10-26T17:42:55.473Z,12.30
2017-10-26T17:45:22.430Z,12.20
2017-10-26T17:47:49.318Z,12.10
2017-10-26T17:50:16.333Z,11.30
2017-10-26T17:52:43.664Z,12.00
2017-10-26T17:55:10.545Z,11.67
2017-10-26T17:57:37.461Z,12.10
2017-10-26T18:00:04.406Z,10.73
2017-10-26T18:02:31.297Z,13.33
2017-10-26T18:04:58.181Z,15.70
2017-10-26T18:07:25.155Z,14.37
2017-10-26T18:09:52.051Z,11.53
2017-10-26T18:12:18.935Z,11.60
2017-10-26T18:14:45.886Z,11.17
2017-10-26T18:17:12.785Z,11.80
2017-10-26T18:19:39.780Z,11.80
2017-10-26T18:22:06.677Z,11.50
2017-10-26T18:24:33.562Z,13.10
2017-10-26T18:27:00.518Z,12.77
2017-10-26T18:29:27.482Z,15.00
2017-10-26T18:31:54.821Z,15.80
2017-10-26T18:34:21.721Z,17.23
2017-10-26T18:36:48.644Z,14.33
2017-10-26T18:39:15.527Z,13.90
2017-10-26T18:41:42.422Z,12.93
2017-10-26T18:44:09.746Z,12.47
2017-10-26T18:46:36.695Z,12.60
2017-10-26T18:49:03.613Z,12.67
2017-10-26T18:51:30.537Z,13.27
2017-10-26T18:53:57.422Z,13.30
2017-10-26T18:56:24.313Z,13.17
2017-10-26T18:58:51.321Z,13.53
2017-10-26T19:01:18.206Z,15.30
2017-10-26T19:03:45.094Z,14.03
2017-10-26T19:06:12.065Z,13.53
2017-10-26T19:08:38.957Z,13.47
2017-10-26T19:11:05.853Z,17.17
2017-10-26T19:13:32.766Z,16.90
2017-10-26T19:15:59.650Z,10.80
2017-10-26T19:18:26.561Z,9.53
2017-10-26T19:20:53.474Z,10.33
2017-10-26T19:23:20.408Z,11.20
2017-10-26T19:25:47.742Z,9.57
2017-10-26T19:28:14.638Z,11.00
2017-10-26T19:30:41.542Z,10.23
2017-10-26T19:33:08.882Z,11.17
2017-10-26T19:35:35.831Z,11.60
2017-10-26T19:38:02.778Z,11.27
2017-10-26T19:40:29.731Z,11.00
2017-10-26T19:42:56.674Z,10.47
2017-10-26T19:45:23.560Z,10.60
2017-10-26T19:47:50.466Z,10.90
2017-10-26T19:50:17.366Z,10.53
2017-10-26T19:52:44.358Z,10.40
2017-10-26T19:55:11.258Z,10.83
2017-10-26T19:57:38.259Z,10.13
2017-10-26T20:00:05.559Z,9.20
2017-10-26T20:02:32.455Z,10.77
2017-10-26T20:04:59.366Z,10.37
2017-10-26T20:07:26.377Z,10.30
2017-10-26T20:09:53.354Z,9.80
2017-10-26T20:12:20.337Z,10.00
2017-10-26T20:14:47.651Z,9.90
2017-10-26T20:17:14.579Z,9.50
2017-10-26T20:19:41.462Z,9.27
2017-10-26T20:22:08.433Z,8.30
2017-10-26T20:24:35.341Z,8.13
2017-10-26T20:27:02.335Z,9.70
2017-10-26T20:29:29.635Z,10.03
2017-10-26T20:31:56.549Z,8.40
2017-10-26T20:34:23.885Z,9.03
2017-10-26T20:36:50.769Z,9.57
2017-10-26T20:39:17.691Z,9.80
2017-10-26T20:41:45.026Z,11.40
2017-10-26T20:44:11.901Z,9.73
2017-10-26T20:46:38.921Z,9.80
2017-10-26T20:49:05.827Z,11.20
2017-10-26T20:51:32.706Z,9.87
2017-10-26T20:53:59.686Z,11.33
2017-10-26T20:56:26.602Z,12.20
2017-10-26T20:58:53.550Z,9.73
2017-10-26T21:01:20.467Z,10.80
2017-10-26T21:03:47.354Z,11.97
2017-10-26T21:06:14.666Z,13.50
2017-10-26T21:08:41.638Z,14.23
2017-10-26T21:11:08.589Z,13.90
2017-10-26T21:13:35.538Z,13.50
2017-10-26T21:16:02.452Z,12.97
2017-10-26T21:18:29.337Z,13.50
2017-10-26T21:20:56.681Z,13.53
2017-10-26T21:23:23.734Z,12.30
2017-10-26T21:25:50.623Z,13.00
2017-10-26T21:28:17.515Z,12.10
2017-10-26T21:30:44.490Z,11.63
2017-10-26T21:33:11.797Z,11.90
2017-10-26T21:35:38.768Z,12.53
2017-10-26T21:38:05.715Z,13.40
2017-10-26T21:40:32.663Z,12.60
2017-10-26T21:42:59.610Z,11.83
2017-10-26T21:45:26.553Z,12.00
2017-10-26T21:47:53.441Z,11.93
2017-10-26T21:50:20.383Z,12.37
2017-10-26T21:52:47.290Z,12.20
2017-10-26T21:55:14.238Z,12.80
2017-10-26T21:57:41.178Z,12.13
2017-10-26T22:00:08.065Z,12.00
2017-10-26T22:02:34.975Z,11.57
2017-10-26T22:05:01.925Z,12.90
2017-10-26T22:07:28.865Z,11.73
2017-10-26T22:09:55.820Z,12.13
2017-10-26T22:12:22.706Z,14.10
2017-10-26T22:14:49.617Z,11.93
2017-10-26T22:17:16.946Z,13.60
2017-10-26T22:19:43.829Z,13.50
2017-10-26T22:22:11.105Z,13.20
2017-10-26T22:24:38.101Z,13.30
2017-10-26T22:27:04.987Z,13.47
2017-10-26T22:29:31.898Z,12.27
2017-10-26T22:31:58.787Z,13.40
2017-10-26T22:34:25.721Z,13.73
2017-10-26T22:36:53.011Z,13.77
2017-10-26T22:39:19.911Z,13.17
2017-10-26T22:41:47.267Z,13.07
2017-10-26T22:44:14.162Z,12.87
2017-10-26T22:58:03.992Z,14.00
2017-10-26T23:00:32.097Z,13.83
2017-10-26T23:02:59.009Z,13.87
2017-10-26T23:05:25.912Z,14.67
2017-10-26T23:07:53.665Z,15.10
2017-10-26T23:10:20.619Z,13.17
2017-10-26T23:12:47.526Z,14.60
2017-10-26T23:15:14.476Z,13.90
2017-10-26T23:17:41.422Z,14.50
2017-10-26T23:20:08.383Z,13.67
2017-10-26T23:22:37.353Z,14.63
2017-10-26T23:25:04.656Z,14.47
2017-10-26T23:27:31.743Z,14.97
2017-10-26T23:29:58.721Z,15.73
2017-10-26T23:32:41.555Z,15.30
2017-10-26T23:35:19.656Z,15.40
2017-10-26T23:38:01.354Z,15.40
2017-10-26T23:40:29.959Z,14.00
2017-10-26T23:42:56.882Z,14.97
2017-10-26T23:45:23.880Z,15.20
2017-10-26T23:47:50.775Z,14.70
2017-10-26T23:50:17.730Z,15.23
2017-10-26T23:52:44.653Z,14.87
2017-10-26T23:55:11.954Z,16.53
2017-10-26T23:57:39.718Z,15.73
